Time;durP1;ratioP1;P1;durP2;ratioP2;P2;SDS_P1;SDS_P2;PMS_P1;PMS_P2;Temp;Humidity;BMP_temperature;BMP_pressure;BME280_temperature;BME280_humidity;BME280_pressure;Samples;Min_cycle;Max_cycle;Signal;HPM_P1;HPM_P2
2022/06/27 00:01:00;;;;;;;3.83;2.70;;;18.80;99.90;;;;;;5049655;28;20479;-68
2022/06/27 00:03:28;;;;;;;3.00;2.63;;;18.80;99.90;;;;;;5051008;28;20464;-68
2022/06/27 00:05:56;;;;;;;6.90;2.40;;;18.70;99.90;;;;;;5050496;28;20447;-67
2022/06/27 00:08:23;;;;;;;3.40;1.70;;;18.70;99.90;;;;;;5050069;28;20463;-68
2022/06/27 00:10:50;;;;;;;2.93;1.50;;;18.70;99.90;;;;;;5049450;28;20436;-68
2022/06/27 00:13:17;;;;;;;2.50;1.80;;;18.80;99.90;;;;;;5049865;28;20464;-67
2022/06/27 00:15:44;;;;;;;2.13;1.30;;;18.80;99.90;;;;;;5049873;28;20436;-67
2022/06/27 00:18:10;;;;;;;2.50;1.23;;;18.70;99.90;;;;;;5049811;28;20979;-68
2022/06/27 00:20:39;;;;;;;2.87;1.20;;;18.70;99.90;;;;;;5049325;28;20480;-68
2022/06/27 00:23:06;;;;;;;2.00;1.00;;;18.60;99.90;;;;;;5050011;28;20456;-67
2022/06/27 00:25:32;;;;;;;2.57;1.20;;;18.50;99.90;;;;;;5049664;28;20438;-68
2022/06/27 00:27:59;;;;;;;3.30;1.10;;;18.40;99.90;;;;;;5049712;28;20447;-68
2022/06/27 00:30:26;;;;;;;3.37;1.30;;;18.40;99.90;;;;;;5049185;28;20439;-68
2022/06/27 00:32:53;;;;;;;3.70;1.33;;;18.30;99.90;;;;;;5049600;28;20464;-67
2022/06/27 00:35:21;;;;;;;3.37;1.40;;;18.10;99.90;;;;;;5049613;28;20448;-68
2022/06/27 00:37:49;;;;;;;3.83;1.10;;;18.00;99.90;;;;;;5049457;28;20832;-69
2022/06/27 00:40:16;;;;;;;4.37;1.77;;;17.90;99.90;;;;;;5049175;28;20494;-68
2022/06/27 00:42:42;;;;;;;5.73;1.23;;;17.80;99.90;;;;;;5049479;28;20452;-68
2022/06/27 00:45:10;;;;;;;3.40;1.50;;;17.60;99.90;;;;;;5049548;28;20452;-69
2022/06/27 00:47:37;;;;;;;3.20;1.43;;;17.40;99.90;;;;;;5049804;28;20440;-69
2022/06/27 00:50:05;;;;;;;4.67;1.63;;;17.30;99.90;;;;;;5049386;28;20462;-69
2022/06/27 00:52:32;;;;;;;4.50;1.30;;;17.20;99.90;;;;;;5049711;28;20539;-68
2022/06/27 00:55:01;;;;;;;4.20;1.60;;;17.20;99.90;;;;;;5049703;28;20440;-69
2022/06/27 00:57:29;;;;;;;6.70;1.97;;;17.10;99.90;;;;;;5049773;28;20450;-70
2022/06/27 00:59:56;;;;;;;10.00;2.23;;;17.10;99.90;;;;;;5049804;28;20447;-69
2022/06/27 01:02:23;;;;;;;6.00;2.40;;;17.10;99.90;;;;;;5049940;28;20483;-70
2022/06/27 01:04:50;;;;;;;5.37;2.00;;;17.10;99.90;;;;;;5049895;28;20444;-70
2022/06/27 01:07:17;;;;;;;6.77;1.60;;;17.00;99.90;;;;;;5049654;28;20471;-70
2022/06/27 01:09:44;;;;;;;2.57;1.53;;;16.90;99.90;;;;;;5049359;28;20535;-67
2022/06/27 01:12:13;;;;;;;4.40;2.10;;;16.90;99.90;;;;;;5049202;28;20455;-69
2022/06/27 01:14:40;;;;;;;3.23;1.50;;;16.90;99.90;;;;;;5049620;28;20451;-69
2022/06/27 01:17:07;;;;;;;3.90;1.73;;;16.90;99.90;;;;;;5049532;28;20443;-69
2022/06/27 01:19:34;;;;;;;2.53;1.40;;;16.90;99.90;;;;;;5049223;28;20443;-68
2022/06/27 01:22:06;;;;;;;2.90;1.53;;;16.80;99.90;;;;;;5048873;28;20528;-69
2022/06/27 01:24:32;;;;;;;4.60;1.57;;;16.80;99.90;;;;;;5049304;28;20432;-68
2022/06/27 01:26:59;;;;;;;2.20;1.30;;;16.80;99.90;;;;;;5049249;28;20444;-69
2022/06/27 01:29:26;;;;;;;2.60;1.50;;;16.80;99.90;;;;;;5049143;28;20432;-69
2022/06/27 01:31:53;;;;;;;2.30;1.20;;;16.80;99.90;;;;;;5048720;28;20853;-69
2022/06/27 01:34:20;;;;;;;3.00;1.17;;;16.80;99.90;;;;;;5048980;28;20444;-69
2022/06/27 01:36:48;;;;;;;2.53;1.17;;;16.80;99.90;;;;;;5049908;28;20869;-69
2022/06/27 01:39:18;;;;;;;4.27;1.70;;;16.80;99.90;;;;;;5048895;28;20451;-69
2022/06/27 01:41:47;;;;;;;4.83;1.20;;;16.80;99.90;;;;;;5049567;28;20475;-69
2022/06/27 01:44:15;;;;;;;3.77;1.23;;;16.80;99.90;;;;;;5048383;28;20463;-68
2022/06/27 01:46:44;;;;;;;2.83;1.50;;;16.70;99.90;;;;;;5052111;28;20447;-68
2022/06/27 01:49:12;;;;;;;8.90;3.03;;;16.80;99.90;;;;;;5052853;28;20447;-68
2022/06/27 01:51:39;;;;;;;2.83;1.77;;;16.80;99.90;;;;;;5052027;28;20438;-68
2022/06/27 01:54:08;;;;;;;8.50;2.00;;;16.90;99.90;;;;;;5052647;28;21019;-69
2022/06/27 01:56:36;;;;;;;6.83;2.43;;;17.00;99.90;;;;;;5052735;28;20791;-69
2022/06/27 01:59:03;;;;;;;4.60;1.67;;;17.00;99.90;;;;;;5052832;28;20439;-68
2022/06/27 02:01:30;;;;;;;6.87;2.30;;;17.10;99.90;;;;;;5052196;28;20479;-69
2022/06/27 02:03:59;;;;;;;8.27;3.07;;;17.10;99.90;;;;;;5052291;28;20459;-69
2022/06/27 02:06:26;;;;;;;5.70;1.97;;;17.20;99.90;;;;;;5052365;28;21046;-68
2022/06/27 02:08:54;;;;;;;8.30;2.00;;;17.20;99.90;;;;;;5052282;28;20458;-68
2022/06/27 02:11:22;;;;;;;10.43;2.97;;;17.20;99.90;;;;;;5052270;28;20444;-69
2022/06/27 02:13:50;;;;;;;36.03;6.83;;;17.20;99.90;;;;;;5052430;28;20827;-68
2022/06/27 02:16:19;;;;;;;7.47;2.10;;;17.20;99.90;;;;;;5052576;28;20440;-68
2022/06/27 02:18:46;;;;;;;5.87;2.07;;;17.20;99.90;;;;;;5052160;28;20806;-68
2022/06/27 02:21:16;;;;;;;4.03;1.90;;;17.20;99.90;;;;;;5052095;28;20853;-68
2022/06/27 02:23:43;;;;;;;4.97;2.00;;;17.20;99.90;;;;;;5051943;28;20970;-68
2022/06/27 02:26:12;;;;;;;3.50;1.80;;;17.20;99.90;;;;;;5052239;28;20814;-68
2022/06/27 02:28:39;;;;;;;19.53;3.80;;;17.10;99.90;;;;;;5052020;28;20443;-68
2022/06/27 02:31:09;;;;;;;4.03;2.00;;;17.10;99.90;;;;;;5051744;28;20450;-68
2022/06/27 02:33:38;;;;;;;4.73;1.97;;;17.10;99.90;;;;;;5052378;28;20464;-69
2022/06/27 02:36:07;;;;;;;4.40;1.70;;;17.00;99.90;;;;;;5052502;28;20452;-69
2022/06/27 02:38:35;;;;;;;4.57;2.00;;;17.00;99.90;;;;;;5051796;28;20443;-68
2022/06/27 02:41:05;;;;;;;3.93;2.00;;;17.00;99.90;;;;;;5051390;28;20476;-69
2022/06/27 02:43:36;;;;;;;3.10;2.20;;;17.00;99.90;;;;;;5051734;28;20460;-69
2022/06/27 02:46:03;;;;;;;3.77;2.00;;;17.00;99.90;;;;;;5051808;28;20830;-69
2022/06/27 02:48:33;;;;;;;4.10;2.20;;;16.90;99.90;;;;;;5051864;28;20455;-69
2022/06/27 02:51:04;;;;;;;10.30;2.77;;;17.00;99.90;;;;;;5051495;28;20470;-69
2022/06/27 02:53:41;;;;;;;6.30;2.40;;;17.00;99.90;;;;;;5051607;28;20463;-69
2022/06/27 02:56:11;;;;;;;3.93;2.03;;;17.00;99.90;;;;;;5051500;28;20948;-68
2022/06/27 02:58:43;;;;;;;3.57;2.03;;;17.00;99.90;;;;;;5051462;28;20435;-68
2022/06/27 03:01:13;;;;;;;4.70;2.33;;;17.00;99.90;;;;;;5051395;28;20573;-69
2022/06/27 03:03:42;;;;;;;3.43;1.90;;;17.00;99.90;;;;;;5051440;28;20466;-68
2022/06/27 03:06:10;;;;;;;4.50;2.13;;;17.00;99.90;;;;;;5051360;28;20523;-68
2022/06/27 03:08:38;;;;;;;4.20;2.70;;;17.00;99.90;;;;;;5051221;28;20448;-68
2022/06/27 03:11:06;;;;;;;6.53;2.67;;;17.00;99.90;;;;;;5050892;28;20448;-69
2022/06/27 03:13:33;;;;;;;3.83;1.90;;;17.00;99.90;;;;;;5051161;28;20474;-69
2022/06/27 03:16:00;;;;;;;5.37;2.67;;;16.90;99.90;;;;;;5051282;28;20443;-69
2022/06/27 03:18:27;;;;;;;3.27;2.50;;;17.00;99.90;;;;;;5051180;28;20451;-69
2022/06/27 03:20:55;;;;;;;11.30;2.20;;;16.90;99.90;;;;;;5050724;28;20444;-69
2022/06/27 03:23:22;;;;;;;6.77;2.23;;;16.90;99.90;;;;;;5050901;28;20496;-68
2022/06/27 03:25:49;;;;;;;13.90;3.30;;;16.90;99.90;;;;;;5051218;28;20454;-68
2022/06/27 03:28:16;;;;;;;3.27;2.20;;;16.90;99.90;;;;;;5051167;28;20536;-71
2022/06/27 03:30:44;;;;;;;4.07;2.30;;;16.90;99.90;;;;;;5050831;28;20448;-67
2022/06/27 03:33:11;;;;;;;4.30;2.70;;;16.90;99.90;;;;;;5051058;28;20456;-68
2022/06/27 03:35:37;;;;;;;6.70;2.50;;;17.00;99.90;;;;;;5051051;28;20448;-68
2022/06/27 03:38:06;;;;;;;4.27;2.60;;;17.00;99.90;;;;;;5050998;28;20440;-68
2022/06/27 03:40:33;;;;;;;4.23;2.90;;;17.10;99.90;;;;;;5050939;28;20470;-68
2022/06/27 03:42:59;;;;;;;4.90;3.07;;;17.20;99.90;;;;;;5050929;28;20993;-68
2022/06/27 03:45:26;;;;;;;4.40;3.17;;;17.20;99.90;;;;;;5051290;28;20519;-69
2022/06/27 03:47:55;;;;;;;3.90;2.30;;;17.20;99.90;;;;;;5050780;28;20444;-68
2022/06/27 03:50:22;;;;;;;5.63;2.37;;;17.30;99.90;;;;;;5050388;28;20440;-68
2022/06/27 03:52:49;;;;;;;4.60;2.63;;;17.30;99.90;;;;;;5050354;28;20487;-68
2022/06/27 03:55:18;;;;;;;5.70;2.77;;;17.30;99.90;;;;;;5050583;28;20443;-68
2022/06/27 03:57:48;;;;;;;3.80;2.60;;;17.30;99.90;;;;;;5050397;28;20450;-69
2022/06/27 04:00:16;;;;;;;5.37;2.90;;;17.30;99.90;;;;;;5049877;28;20446;-68
2022/06/27 04:02:43;;;;;;;6.70;3.20;;;17.30;99.90;;;;;;5050163;28;20480;-68
2022/06/27 04:05:10;;;;;;;4.80;2.80;;;17.30;99.90;;;;;;5050406;28;20432;-69
2022/06/27 04:07:38;;;;;;;5.87;2.83;;;17.40;99.90;;;;;;5049906;28;20448;-69
2022/06/27 04:10:06;;;;;;;4.30;2.43;;;17.40;99.90;;;;;;5049867;28;20446;-69
2022/06/27 04:12:35;;;;;;;3.73;2.60;;;17.40;99.90;;;;;;5049825;28;20454;-69
2022/06/27 04:15:02;;;;;;;4.80;3.00;;;17.40;99.90;;;;;;5050127;28;20440;-69
2022/06/27 04:17:28;;;;;;;5.07;3.40;;;17.50;99.90;;;;;;5049896;28;20810;-69
2022/06/27 04:19:55;;;;;;;6.87;3.20;;;17.40;99.90;;;;;;5049697;28;20448;-68
2022/06/27 04:22:22;;;;;;;5.30;3.20;;;17.40;99.90;;;;;;5049746;28;20993;-70
2022/06/27 04:24:49;;;;;;;6.50;2.87;;;17.50;99.90;;;;;;5049948;28;20530;-69
2022/06/27 04:27:19;;;;;;;5.97;3.57;;;17.50;99.90;;;;;;5050088;28;20444;-68
2022/06/27 04:29:49;;;;;;;4.70;3.50;;;17.50;99.90;;;;;;5049639;28;20448;-68
2022/06/27 04:32:16;;;;;;;5.37;3.33;;;17.40;99.90;;;;;;5049369;28;20460;-70
2022/06/27 04:34:43;;;;;;;6.40;3.47;;;17.40;99.90;;;;;;5043949;28;20848;-68
2022/06/27 04:37:10;;;;;;;5.30;3.73;;;17.50;99.90;;;;;;5046654;28;20527;-69
2022/06/27 04:39:37;;;;;;;6.00;3.77;;;17.60;99.90;;;;;;5045919;28;20506;-67
2022/06/27 04:42:06;;;;;;;4.70;3.77;;;17.70;99.90;;;;;;5048098;28;21009;-68
2022/06/27 04:44:33;;;;;;;9.83;4.90;;;17.80;99.90;;;;;;5045393;28;20437;-68
2022/06/27 04:47:02;;;;;;;11.63;3.50;;;17.80;99.90;;;;;;5047588;28;20452;-70
2022/06/27 04:49:30;;;;;;;35.17;6.00;;;17.90;99.90;;;;;;5041802;28;20964;-69
2022/06/27 04:51:58;;;;;;;5.43;3.77;;;18.00;99.90;;;;;;5043386;28;20982;-68
2022/06/27 04:54:26;;;;;;;5.37;3.93;;;18.00;99.90;;;;;;5044688;28;20444;-67
2022/06/27 04:56:54;;;;;;;5.53;4.37;;;18.10;99.90;;;;;;5047353;28;20491;-68
2022/06/27 04:59:21;;;;;;;10.90;4.43;;;18.10;99.90;;;;;;5046098;28;20440;-69
2022/06/27 05:01:49;;;;;;;4.50;3.57;;;18.10;99.90;;;;;;5043385;28;20480;-67
2022/06/27 05:04:18;;;;;;;5.80;3.30;;;18.10;99.90;;;;;;5044721;28;20496;-69
2022/06/27 05:06:45;;;;;;;5.00;3.40;;;18.10;99.90;;;;;;5040467;28;20851;-70
2022/06/27 05:09:12;;;;;;;5.87;3.47;;;18.10;99.90;;;;;;5045225;28;20452;-69
2022/06/27 05:11:39;;;;;;;5.33;3.40;;;18.10;99.90;;;;;;5036243;28;20448;-69
2022/06/27 05:14:06;;;;;;;3.70;3.03;;;18.20;99.90;;;;;;5043729;28;20474;-69
2022/06/27 05:16:33;;;;;;;4.40;3.70;;;18.30;99.90;;;;;;5037007;28;20438;-69
2022/06/27 05:19:00;;;;;;;4.63;2.40;;;18.40;99.90;;;;;;5047512;28;20463;-70
2022/06/27 05:21:29;;;;;;;4.80;2.60;;;18.40;99.90;;;;;;5049313;28;20437;-69
2022/06/27 05:23:56;;;;;;;8.10;3.20;;;18.50;99.90;;;;;;5047828;28;20481;-69
2022/06/27 05:26:23;;;;;;;3.93;3.20;;;18.50;99.90;;;;;;5048901;28;20473;-70
2022/06/27 05:28:50;;;;;;;7.23;3.80;;;18.60;99.90;;;;;;5051352;28;20448;-70
2022/06/27 05:31:17;;;;;;;4.60;3.63;;;18.60;99.90;;;;;;5050886;28;20526;-69
2022/06/27 05:33:44;;;;;;;5.80;3.33;;;18.60;99.90;;;;;;5052482;28;20462;-69
2022/06/27 05:36:11;;;;;;;5.40;3.03;;;18.60;99.90;;;;;;5053029;28;20448;-68
2022/06/27 05:38:40;;;;;;;5.00;2.50;;;18.70;99.90;;;;;;5052914;28;20436;-69
2022/06/27 05:41:07;;;;;;;3.53;2.17;;;18.80;99.90;;;;;;5052762;28;20526;-70
2022/06/27 05:43:34;;;;;;;4.13;2.03;;;18.80;99.90;;;;;;5052712;28;21007;-70
2022/06/27 05:46:02;;;;;;;4.07;2.50;;;18.90;99.90;;;;;;5052741;28;21044;-69
2022/06/27 05:48:29;;;;;;;3.93;2.40;;;18.90;99.90;;;;;;5047582;28;20456;-69
2022/06/27 05:50:56;;;;;;;6.87;3.37;;;18.90;99.90;;;;;;5043311;28;20805;-68
2022/06/27 05:53:24;;;;;;;3.83;2.60;;;18.90;99.90;;;;;;5052492;28;21178;-68
2022/06/27 05:55:52;;;;;;;5.33;2.67;;;19.00;99.90;;;;;;5052561;28;20451;-69
2022/06/27 05:58:19;;;;;;;5.17;2.70;;;19.10;99.90;;;;;;5052771;28;20479;-68
2022/06/27 06:00:47;;;;;;;5.80;2.30;;;19.30;99.90;;;;;;5052480;28;20459;-68
2022/06/27 06:03:14;;;;;;;4.70;2.20;;;19.40;99.90;;;;;;5052312;28;20974;-68
2022/06/27 06:05:41;;;;;;;5.90;2.07;;;19.50;99.90;;;;;;5052381;28;20484;-69
2022/06/27 06:08:08;;;;;;;5.30;2.03;;;19.60;99.90;;;;;;5052205;28;20934;-69
2022/06/27 06:10:36;;;;;;;7.13;2.20;;;19.70;99.90;;;;;;5052193;28;20443;-69
2022/06/27 06:13:04;;;;;;;4.10;2.27;;;19.70;99.90;;;;;;5052254;28;20966;-68
2022/06/27 06:15:32;;;;;;;3.80;1.90;;;19.70;99.90;;;;;;5052551;28;20490;-69
2022/06/27 06:18:01;;;;;;;4.50;2.13;;;19.70;99.90;;;;;;5052401;28;20452;-69
2022/06/27 06:20:29;;;;;;;3.67;1.40;;;19.70;99.90;;;;;;5052253;28;20989;-69
2022/06/27 06:22:56;;;;;;;2.90;1.50;;;19.90;99.90;;;;;;5052238;28;20953;-68
2022/06/27 06:25:23;;;;;;;3.00;1.50;;;20.00;99.90;;;;;;5047398;28;21018;-68
2022/06/27 06:27:50;;;;;;;6.30;1.63;;;19.90;99.90;;;;;;5052405;28;20444;-68
2022/06/27 06:30:19;;;;;;;4.43;1.40;;;19.60;99.90;;;;;;5051611;28;20472;-69
2022/06/27 06:32:46;;;;;;;3.73;2.00;;;19.50;99.90;;;;;;5050845;28;20459;-68
2022/06/27 06:35:14;;;;;;;2.53;1.60;;;19.40;99.90;;;;;;5051851;28;20463;-69
2022/06/27 06:37:41;;;;;;;2.10;1.30;;;19.40;99.90;;;;;;5051573;28;20446;-69
2022/06/27 06:40:10;;;;;;;2.30;1.23;;;19.40;99.90;;;;;;5051480;28;20448;-68
2022/06/27 06:42:36;;;;;;;3.30;1.90;;;19.60;99.90;;;;;;5051705;28;20484;-68
2022/06/27 06:45:04;;;;;;;2.63;1.70;;;19.70;99.90;;;;;;5051840;28;20444;-68
2022/06/27 06:47:33;;;;;;;3.27;1.67;;;19.90;99.90;;;;;;5051741;28;20448;-69
2022/06/27 06:50:01;;;;;;;4.37;1.80;;;19.90;99.90;;;;;;5051514;28;20546;-69
2022/06/27 06:52:30;;;;;;;2.80;1.80;;;19.80;99.90;;;;;;5051812;28;20487;-68
2022/06/27 06:54:57;;;;;;;3.50;1.37;;;19.90;99.90;;;;;;5051849;28;20498;-68
2022/06/27 06:57:24;;;;;;;4.33;1.87;;;20.00;99.90;;;;;;5051745;28;20436;-69
2022/06/27 06:59:50;;;;;;;2.93;1.90;;;20.20;99.90;;;;;;5051373;28;20444;-69
2022/06/27 07:02:17;;;;;;;3.80;1.57;;;20.30;99.90;;;;;;5051268;28;20479;-68
2022/06/27 07:04:47;;;;;;;6.43;1.53;;;20.60;99.90;;;;;;5051745;28;20536;-69
2022/06/27 07:07:17;;;;;;;2.47;1.20;;;20.80;99.90;;;;;;5051223;28;20563;-68
2022/06/27 07:09:44;;;;;;;3.10;1.30;;;21.10;99.90;;;;;;5051314;28;20440;-67
2022/06/27 07:12:11;;;;;;;3.70;1.40;;;21.10;99.90;;;;;;5051160;28;20448;-69
2022/06/27 07:14:38;;;;;;;2.90;1.40;;;21.00;99.90;;;;;;5051355;28;20447;-69
2022/06/27 07:17:05;;;;;;;2.50;1.53;;;20.90;99.90;;;;;;5051386;28;20534;-70
2022/06/27 07:19:32;;;;;;;2.77;1.70;;;20.80;99.90;;;;;;5051376;28;20944;-68
2022/06/27 07:22:01;;;;;;;3.30;1.57;;;20.70;99.90;;;;;;5051102;28;20493;-69
2022/06/27 07:24:28;;;;;;;3.77;2.10;;;20.50;99.90;;;;;;5051370;28;20447;-69
2022/06/27 07:26:55;;;;;;;3.10;2.03;;;20.40;99.90;;;;;;5051292;28;20438;-69
2022/06/27 07:29:22;;;;;;;3.03;1.63;;;20.20;99.90;;;;;;5051205;28;20440;-69
2022/06/27 07:31:49;;;;;;;5.90;1.83;;;20.00;99.90;;;;;;5050796;28;20447;-70
2022/06/27 07:34:19;;;;;;;3.70;2.00;;;19.90;99.90;;;;;;5050869;28;20482;-69
2022/06/27 07:36:46;;;;;;;5.63;2.40;;;20.10;99.90;;;;;;5051156;28;20444;-70
2022/06/27 07:39:15;;;;;;;7.97;2.53;;;20.20;99.90;;;;;;5051495;28;20447;-70
2022/06/27 07:41:44;;;;;;;4.23;2.30;;;20.30;99.90;;;;;;5050491;28;20443;-69
2022/06/27 07:44:11;;;;;;;6.50;2.03;;;20.20;99.90;;;;;;5049922;28;20488;-70
2022/06/27 07:46:38;;;;;;;7.93;2.10;;;20.20;99.90;;;;;;5050610;28;20440;-70
2022/06/27 07:49:05;;;;;;;6.27;2.40;;;20.30;99.90;;;;;;5050760;28;20498;-69
2022/06/27 07:51:32;;;;;;;2.80;1.90;;;20.40;99.90;;;;;;5050256;28;20443;-68
2022/06/27 07:53:59;;;;;;;4.40;2.10;;;20.50;99.90;;;;;;5050320;28;20452;-68
2022/06/27 07:56:27;;;;;;;4.30;1.80;;;20.90;99.90;;;;;;5046651;28;20455;-68
2022/06/27 07:58:54;;;;;;;2.10;1.30;;;21.50;99.90;;;;;;5039514;28;20448;-68
2022/06/27 08:01:23;;;;;;;2.33;1.50;;;21.80;99.90;;;;;;5043075;28;20447;-68
2022/06/27 08:03:50;;;;;;;6.80;1.87;;;22.10;99.90;;;;;;5044666;28;20978;-69
2022/06/27 08:06:19;;;;;;;10.60;2.90;;;22.00;99.90;;;;;;5045167;28;20520;-68
2022/06/27 08:08:50;;;;;;;8.80;2.20;;;22.10;99.90;;;;;;5040972;28;20519;-68
2022/06/27 08:11:22;;;;;;;5.30;2.13;;;22.20;99.90;;;;;;5041584;28;20443;-69
2022/06/27 08:13:52;;;;;;;3.03;1.63;;;22.10;99.90;;;;;;5039232;28;20975;-68
2022/06/27 08:16:20;;;;;;;2.63;1.50;;;22.00;99.90;;;;;;5040774;28;20452;-68
2022/06/27 08:18:48;;;;;;;5.00;1.47;;;21.80;99.90;;;;;;5040136;28;20452;-68
2022/06/27 08:21:17;;;;;;;4.70;1.93;;;21.70;99.90;;;;;;5041382;28;20448;-68
2022/06/27 08:23:46;;;;;;;3.53;1.87;;;21.60;99.90;;;;;;5044892;28;20531;-68
2022/06/27 08:26:13;;;;;;;4.80;1.93;;;21.60;99.90;;;;;;5042341;28;20961;-68
2022/06/27 08:28:42;;;;;;;5.03;1.60;;;21.60;99.90;;;;;;5043725;28;20439;-68
2022/06/27 08:31:12;;;;;;;3.27;1.87;;;21.80;99.90;;;;;;5049631;28;20805;-68
2022/06/27 08:33:40;;;;;;;3.70;2.00;;;22.00;99.90;;;;;;5041299;28;20456;-67
2022/06/27 08:36:08;;;;;;;3.03;1.90;;;22.20;99.90;;;;;;5048273;28;20440;-68
2022/06/27 08:38:42;;;;;;;4.63;1.77;;;22.70;99.90;;;;;;5049771;28;20806;-68
2022/06/27 08:41:10;;;;;;;4.83;1.80;;;23.00;99.90;;;;;;5049384;28;20442;-68
2022/06/27 08:43:38;;;;;;;4.43;2.13;;;23.30;99.90;;;;;;5049827;28;20488;-68
2022/06/27 08:46:05;;;;;;;5.70;1.97;;;23.60;99.90;;;;;;5049461;28;20539;-68
2022/06/27 08:48:34;;;;;;;4.17;2.40;;;23.60;99.90;;;;;;5046589;28;20475;-68
2022/06/27 08:51:06;;;;;;;8.73;2.50;;;23.10;99.90;;;;;;5046181;28;20823;-68
2022/06/27 08:53:33;;;;;;;6.97;2.80;;;22.50;99.90;;;;;;5049529;28;20495;-67
2022/06/27 08:56:00;;;;;;;2.77;2.33;;;22.00;99.90;;;;;;5049685;28;20451;-68
2022/06/27 08:58:28;;;;;;;4.10;2.40;;;21.80;99.90;;;;;;5049758;28;20440;-68
2022/06/27 09:00:55;;;;;;;3.63;2.20;;;22.00;99.90;;;;;;5049272;28;20444;-68
2022/06/27 09:03:23;;;;;;;3.23;2.30;;;22.10;99.90;;;;;;5049604;28;20910;-68
2022/06/27 09:05:59;;;;;;;2.40;1.83;;;21.90;99.90;;;;;;5049536;28;20440;-68
2022/06/27 09:08:28;;;;;;;2.60;1.83;;;21.70;99.90;;;;;;5049311;28;20459;-68
2022/06/27 09:10:56;;;;;;;3.00;2.00;;;21.50;99.90;;;;;;5049615;28;20440;-68
2022/06/27 09:13:23;;;;;;;3.83;1.90;;;21.30;99.90;;;;;;5049296;28;21035;-68
2022/06/27 09:15:53;;;;;;;2.77;1.87;;;21.40;99.90;;;;;;5049427;28;20498;-68
2022/06/27 09:18:21;;;;;;;2.60;1.90;;;21.50;99.90;;;;;;5049181;28;20526;-68
2022/06/27 09:20:54;;;;;;;4.50;2.27;;;21.70;99.90;;;;;;5049188;28;20448;-68
2022/06/27 09:23:40;;;;;;;12.80;3.83;;;22.00;99.90;;;;;;5048350;28;21254;-68
2022/06/27 09:26:10;;;;;;;3.73;2.20;;;22.10;99.90;;;;;;5044317;28;20478;-68
2022/06/27 09:28:56;;;;;;;8.23;1.83;;;22.00;99.90;;;;;;5048399;28;20483;-68
2022/06/27 09:31:45;;;;;;;5.57;2.30;;;21.80;99.90;;;;;;5048983;28;20499;-68
2022/06/27 09:34:15;;;;;;;3.97;2.03;;;21.60;99.90;;;;;;5036283;28;20472;-67
2022/06/27 09:36:45;;;;;;;5.67;2.60;;;21.50;99.90;;;;;;5029245;28;20448;-68
2022/06/27 09:39:29;;;;;;;4.17;2.37;;;21.40;99.90;;;;;;5029121;28;20437;-68
2022/06/27 09:41:59;;;;;;;5.63;2.40;;;21.10;99.90;;;;;;5029180;28;20447;-68
2022/06/27 09:44:29;;;;;;;3.17;2.30;;;21.00;99.90;;;;;;5042967;28;20531;-68
2022/06/27 09:47:04;;;;;;;2.90;2.50;;;21.00;99.90;;;;;;5049153;28;20448;-68
2022/06/27 09:49:34;;;;;;;5.00;2.70;;;21.10;99.90;;;;;;5048973;28;20443;-68
2022/06/27 09:52:05;;;;;;;5.17;2.47;;;21.10;99.90;;;;;;5048160;28;20455;-67
2022/06/27 09:54:35;;;;;;;3.70;2.20;;;21.40;99.90;;;;;;5043517;28;20456;-68
2022/06/27 09:57:05;;;;;;;3.70;2.57;;;21.70;99.90;;;;;;5045423;28;20457;-69
2022/06/27 09:59:32;;;;;;;3.60;2.40;;;22.20;99.90;;;;;;5048064;28;20440;-68
2022/06/27 10:02:00;;;;;;;3.20;2.20;;;22.60;99.90;;;;;;5046132;28;20934;-68
2022/06/27 10:04:28;;;;;;;5.73;4.60;;;23.10;99.90;;;;;;5049114;28;20567;-69
2022/06/27 10:06:57;;;;;;;3.60;3.20;;;23.40;99.90;;;;;;5050821;28;20432;-69
2022/06/27 10:09:25;;;;;;;3.10;2.53;;;23.50;99.90;;;;;;5049492;28;20807;-69
2022/06/27 10:12:24;;;;;;;3.57;2.90;;;23.50;99.90;;;;;;5049046;28;20447;-68
2022/06/27 10:15:23;;;;;;;5.17;3.80;;;23.50;99.90;;;;;;5047756;28;20436;-68
2022/06/27 10:17:52;;;;;;;5.30;3.27;;;23.40;99.90;;;;;;5046499;28;20501;-66
2022/06/27 10:20:20;;;;;;;4.50;3.93;;;22.80;99.90;;;;;;5051603;28;20440;-67
2022/06/27 10:23:28;;;;;;;3.20;2.90;;;22.60;99.90;;;;;;5051995;28;20466;-66
2022/06/27 10:25:56;;;;;;;6.47;3.87;;;22.50;99.90;;;;;;5051635;28;20476;-68
2022/06/27 10:28:25;;;;;;;4.47;3.27;;;22.60;99.90;;;;;;5049835;28;20813;-68
2022/06/27 10:30:53;;;;;;;6.10;3.87;;;22.50;99.90;;;;;;5051531;28;20436;-69
2022/06/27 10:33:37;;;;;;;4.23;3.23;;;22.50;99.90;;;;;;5051674;28;20448;-69
2022/06/27 10:36:10;;;;;;;4.67;3.30;;;22.40;99.90;;;;;;5052066;28;20516;-68
2022/06/27 10:38:56;;;;;;;5.03;3.77;;;22.70;99.90;;;;;;5049444;28;20448;-67
2022/06/27 10:41:42;;;;;;;9.03;4.17;;;22.80;99.90;;;;;;5049117;28;20443;-69
2022/06/27 10:44:31;;;;;;;3.90;2.90;;;22.80;99.90;;;;;;5052111;28;20492;-68
2022/06/27 10:46:59;;;;;;;3.50;2.67;;;22.50;99.90;;;;;;5052093;28;20785;-67
2022/06/27 10:49:28;;;;;;;4.47;2.83;;;22.40;99.90;;;;;;5051667;28;20439;-68
2022/06/27 10:52:33;;;;;;;3.27;2.63;;;22.50;99.90;;;;;;5051682;28;20534;-68
2022/06/27 10:55:01;;;;;;;3.93;2.80;;;22.80;99.90;;;;;;5051876;28;20518;-68
2022/06/27 10:57:42;;;;;;;3.80;3.33;;;23.30;99.90;;;;;;5051790;28;20443;-68
2022/06/27 11:00:13;;;;;;;4.70;2.47;;;23.80;99.90;;;;;;5051533;28;20436;-69
2022/06/27 11:02:41;;;;;;;3.80;2.60;;;24.40;99.90;;;;;;5051509;28;20539;-69
2022/06/27 11:05:08;;;;;;;3.27;2.50;;;24.50;99.90;;;;;;5051290;28;20571;-69
2022/06/27 11:07:35;;;;;;;3.70;2.60;;;24.30;99.90;;;;;;5051370;28;20542;-68
2022/06/27 11:10:01;;;;;;;3.67;2.67;;;23.90;99.90;;;;;;5051129;28;20952;-68
2022/06/27 11:12:35;;;;;;;19.60;3.73;;;24.00;99.90;;;;;;5051353;28;20487;-68
2022/06/27 11:15:02;;;;;;;5.53;2.73;;;23.90;99.90;;;;;;5051548;28;20447;-68
2022/06/27 11:17:41;;;;;;;2.97;2.00;;;24.20;99.90;;;;;;5049535;28;20440;-69
2022/06/27 11:20:23;;;;;;;6.80;2.80;;;24.00;99.90;;;;;;5050846;28;20432;-68
2022/06/27 11:22:52;;;;;;;5.40;2.80;;;23.50;99.90;;;;;;5050013;28;20455;-68
2022/06/27 11:25:24;;;;;;;3.13;2.13;;;23.50;99.90;;;;;;5050436;28;20479;-68
2022/06/27 11:27:56;;;;;;;3.60;2.73;;;23.50;99.90;;;;;;5045877;28;20470;-69
2022/06/27 11:33:20;;;;;;;4.37;2.37;;;23.50;99.90;;;;;;5048642;28;20459;-69
2022/06/27 11:35:47;;;;;;;4.50;2.40;;;23.00;99.90;;;;;;5046086;28;20633;-68
2022/06/27 11:38:24;;;;;;;3.00;2.50;;;22.80;99.90;;;;;;5048759;28;20973;-69
2022/06/27 11:41:08;;;;;;;3.00;2.27;;;22.90;99.90;;;;;;5041917;28;20439;-67
2022/06/27 11:43:53;;;;;;;3.10;2.37;;;22.70;99.90;;;;;;5049759;28;20464;-68
2022/06/27 11:46:24;;;;;;;3.80;2.70;;;22.70;99.90;;;;;;5046370;28;20439;-68
2022/06/27 11:48:55;;;;;;;4.40;2.60;;;22.70;99.90;;;;;;5044354;28;20448;-68
2022/06/27 11:51:22;;;;;;;2.77;2.30;;;22.60;99.90;;;;;;5048527;28;20963;-68
2022/06/27 11:53:54;;;;;;;5.37;2.80;;;22.60;99.90;;;;;;5050299;28;20459;-68
2022/06/27 11:56:23;;;;;;;4.53;3.10;;;22.60;99.90;;;;;;5053034;28;20440;-69
2022/06/27 11:58:50;;;;;;;3.63;2.63;;;22.50;99.90;;;;;;5050064;28;20423;-68
2022/06/27 12:01:17;;;;;;;7.13;3.07;;;22.40;99.90;;;;;;5048726;28;20440;-68
2022/06/27 12:04:13;;;;;;;7.23;3.83;;;22.20;99.90;;;;;;5042038;28;20966;-68
2022/06/27 12:06:48;;;;;;;5.60;3.23;;;21.90;99.90;;;;;;5046782;28;20945;-69
2022/06/27 12:09:15;;;;;;;4.80;2.70;;;21.90;99.90;;;;;;5046503;28;20483;-68
2022/06/27 12:11:50;;;;;;;4.07;2.67;;;21.90;99.90;;;;;;5043592;28;20432;-68
2022/06/27 12:14:17;;;;;;;4.17;2.87;;;21.90;99.90;;;;;;5048695;28;20461;-69
2022/06/27 12:16:46;;;;;;;3.70;2.70;;;21.70;99.90;;;;;;5046918;28;20812;-68
2022/06/27 12:19:15;;;;;;;3.80;3.00;;;21.70;99.90;;;;;;5042503;28;20452;-68
2022/06/27 12:21:42;;;;;;;3.93;3.17;;;21.80;99.90;;;;;;5042181;28;20451;-68
2022/06/27 12:24:10;;;;;;;6.07;3.20;;;22.00;99.90;;;;;;5047576;28;20479;-68
2022/06/27 12:26:37;;;;;;;5.00;3.60;;;22.10;99.90;;;;;;5048330;28;20889;-67
2022/06/27 12:29:05;;;;;;;8.00;3.13;;;22.10;99.90;;;;;;5049482;28;20539;-68
2022/06/27 12:31:33;;;;;;;13.90;3.33;;;22.20;99.90;;;;;;5048585;28;20444;-68
2022/06/27 12:33:59;;;;;;;3.90;3.03;;;22.20;99.90;;;;;;5048321;28;20518;-67
2022/06/27 12:36:30;;;;;;;5.47;3.57;;;22.20;99.90;;;;;;5047641;28;20506;-68
2022/06/27 12:38:57;;;;;;;4.07;3.10;;;22.10;99.90;;;;;;5039580;28;20997;-68
2022/06/27 12:41:23;;;;;;;5.30;3.57;;;22.00;99.90;;;;;;5048683;28;20536;-68
2022/06/27 12:43:50;;;;;;;3.53;2.90;;;22.00;99.90;;;;;;5042454;28;20834;-68
2022/06/27 12:46:19;;;;;;;3.70;3.30;;;22.00;99.90;;;;;;5043940;28;20534;-68
2022/06/27 12:48:46;;;;;;;4.97;2.97;;;22.00;99.90;;;;;;5042441;28;20456;-68
2022/06/27 12:51:13;;;;;;;7.00;4.20;;;21.90;99.90;;;;;;5042379;28;20447;-68
2022/06/27 12:53:42;;;;;;;4.37;3.63;;;21.80;99.90;;;;;;5036463;28;20553;-68
2022/06/27 12:56:09;;;;;;;7.47;3.33;;;21.70;99.90;;;;;;5042656;28;20483;-68
2022/06/27 12:58:36;;;;;;;3.97;2.80;;;21.90;99.90;;;;;;5038742;28;21162;-68